Time;durP1;ratioP1;P1;durP2;ratioP2;P2;SDS_P1;SDS_P2;PMS_P1;PMS_P2;Temp;Humidity;BMP_temperature;BMP_pressure;BME280_temperature;BME280_humidity;BME280_pressure;Samples;Min_cycle;Max_cycle;Signal;HPM_P1;HPM_P2
2023/09/11 00:00:41;;;;;;;18.75;7.95;;;23.40;99.90;;;;;;5004714;28;22908;-33
2023/09/11 00:03:07;;;;;;;16.73;7.80;;;23.40;99.90;;;;;;5001091;28;20057;-33
2023/09/11 00:05:33;;;;;;;13.60;8.05;;;23.30;99.90;;;;;;5004868;28;20077;-33
2023/09/11 00:07:58;;;;;;;12.45;7.78;;;23.30;99.90;;;;;;5006471;28;20065;-33
2023/09/11 00:10:24;;;;;;;12.10;7.82;;;23.30;99.90;;;;;;4987520;28;20069;-33
2023/09/11 00:12:50;;;;;;;11.38;8.50;;;23.20;99.90;;;;;;5001974;28;20129;-33
2023/09/11 00:15:15;;;;;;;15.15;8.45;;;23.20;99.90;;;;;;4988544;28;20054;-33
2023/09/11 00:17:41;;;;;;;15.00;7.55;;;23.20;99.90;;;;;;5001422;28;20053;-34
2023/09/11 00:20:10;;;;;;;15.63;8.15;;;23.10;99.90;;;;;;5006702;28;20064;-33
2023/09/11 00:22:39;;;;;;;18.10;8.90;;;23.10;99.90;;;;;;5003112;28;20566;-33
2023/09/11 00:25:06;;;;;;;13.45;7.85;;;23.10;99.90;;;;;;5007595;28;20058;-33
2023/09/11 00:27:32;;;;;;;13.40;7.88;;;23.10;99.90;;;;;;5004157;28;20543;-33
2023/09/11 00:29:58;;;;;;;18.55;8.85;;;23.10;99.90;;;;;;5003587;28;20153;-33
2023/09/11 00:32:23;;;;;;;17.60;8.23;;;23.00;99.90;;;;;;5009548;28;20438;-33
2023/09/11 00:34:49;;;;;;;15.95;8.68;;;22.90;99.90;;;;;;5000837;28;20997;-33
2023/09/11 00:37:15;;;;;;;15.38;8.88;;;22.90;99.90;;;;;;5000277;28;20553;-33
2023/09/11 00:39:40;;;;;;;15.05;8.93;;;22.90;99.90;;;;;;5003920;28;20053;-34
2023/09/11 00:42:06;;;;;;;15.68;8.75;;;22.90;99.90;;;;;;5003931;28;20054;-34
2023/09/11 00:44:32;;;;;;;21.02;9.20;;;22.90;99.90;;;;;;5005597;28;20069;-33
2023/09/11 00:46:58;;;;;;;13.30;9.05;;;22.70;99.90;;;;;;5002091;28;20526;-33
2023/09/11 00:49:24;;;;;;;18.35;8.50;;;22.70;99.90;;;;;;5004049;28;20061;-34
2023/09/11 00:51:50;;;;;;;16.27;9.75;;;22.70;99.90;;;;;;5003498;28;20050;-33
2023/09/11 00:54:19;;;;;;;16.58;8.52;;;22.60;99.90;;;;;;5007924;28;20153;-33
2023/09/11 00:56:46;;;;;;;13.98;9.40;;;22.60;99.90;;;;;;5001693;28;20141;-33
2023/09/11 00:59:13;;;;;;;15.45;9.50;;;22.60;99.90;;;;;;5007293;28;20156;-34
2023/09/11 01:01:42;;;;;;;19.42;9.13;;;22.50;99.90;;;;;;5007883;28;20060;-33
2023/09/11 01:04:08;;;;;;;12.20;8.77;;;22.50;99.90;;;;;;5007904;28;20627;-34
2023/09/11 01:06:34;;;;;;;17.85;9.52;;;22.50;99.90;;;;;;5002748;28;20053;-34
2023/09/11 01:09:02;;;;;;;14.98;9.38;;;22.50;99.90;;;;;;5004422;28;20475;-33
2023/09/11 01:11:27;;;;;;;16.40;8.90;;;22.40;99.90;;;;;;5005380;28;20041;-33
2023/09/11 01:13:54;;;;;;;21.23;8.82;;;22.40;99.90;;;;;;5006573;28;20469;-33
2023/09/11 01:16:37;;;;;;;17.90;9.10;;;22.40;99.90;;;;;;5005849;28;20074;-34
2023/09/11 01:19:36;;;;;;;16.92;8.93;;;22.30;99.90;;;;;;5006092;28;20483;-33
2023/09/11 01:22:20;;;;;;;16.50;9.38;;;22.40;99.90;;;;;;5000918;28;20061;-34
2023/09/11 01:25:17;;;;;;;15.45;9.32;;;22.30;99.90;;;;;;5002126;28;20452;-34
2023/09/11 01:28:03;;;;;;;15.10;9.40;;;22.30;99.90;;;;;;5002180;28;20137;-34
2023/09/11 01:30:29;;;;;;;13.75;9.13;;;22.30;99.90;;;;;;5005216;28;20195;-33
2023/09/11 01:32:56;;;;;;;15.05;9.05;;;22.20;99.90;;;;;;5011417;28;20041;-33
2023/09/11 01:35:22;;;;;;;18.70;9.40;;;22.20;99.90;;;;;;5005810;28;20691;-33
2023/09/11 01:37:48;;;;;;;15.38;9.27;;;22.20;99.90;;;;;;5004113;28;20053;-34
2023/09/11 01:40:14;;;;;;;12.95;8.98;;;22.10;99.90;;;;;;5006245;28;20053;-37
2023/09/11 01:42:44;;;;;;;13.30;9.23;;;22.10;99.90;;;;;;5008597;28;20042;-34
2023/09/11 01:45:15;;;;;;;14.73;8.65;;;22.10;99.90;;;;;;5004175;28;20065;-34
2023/09/11 01:47:46;;;;;;;14.55;9.15;;;22.00;99.90;;;;;;5000238;28;20193;-34
2023/09/11 01:50:16;;;;;;;16.98;9.57;;;21.90;99.90;;;;;;5007453;28;20061;-34
2023/09/11 01:52:44;;;;;;;19.73;9.95;;;21.90;99.90;;;;;;5002506;28;20050;-33
2023/09/11 01:55:09;;;;;;;17.45;9.70;;;21.90;99.90;;;;;;5006415;28;20426;-34
2023/09/11 01:57:35;;;;;;;15.00;9.18;;;21.90;99.90;;;;;;5000311;28;20049;-34
2023/09/11 02:00:01;;;;;;;15.10;10.00;;;21.90;99.90;;;;;;5002147;28;20053;-34
2023/09/11 02:02:29;;;;;;;16.50;9.00;;;21.80;99.90;;;;;;5000023;28;20046;-34
2023/09/11 02:04:55;;;;;;;19.63;9.68;;;21.80;99.90;;;;;;5006031;28;20080;-35
2023/09/11 02:07:21;;;;;;;15.13;8.02;;;21.80;99.90;;;;;;5004042;28;20065;-34
2023/09/11 02:09:47;;;;;;;20.30;10.75;;;21.80;99.90;;;;;;4987570;28;20048;-34
2023/09/11 02:12:12;;;;;;;13.73;10.10;;;21.80;99.90;;;;;;5005028;28;20441;-34
2023/09/11 02:14:38;;;;;;;17.20;10.25;;;21.70;99.90;;;;;;5004093;28;20132;-33
2023/09/11 02:17:04;;;;;;;18.60;10.27;;;21.70;99.90;;;;;;5001125;28;20145;-33
2023/09/11 02:19:30;;;;;;;19.92;10.15;;;21.60;99.90;;;;;;5006614;28;20121;-34
2023/09/11 02:21:56;;;;;;;15.65;10.13;;;21.60;99.90;;;;;;5002029;28;20042;-33
2023/09/11 02:24:21;;;;;;;15.27;9.82;;;21.60;99.90;;;;;;5006899;28;20120;-33
2023/09/11 02:26:47;;;;;;;16.63;9.10;;;21.50;99.90;;;;;;5004645;28;21724;-34
2023/09/11 02:29:13;;;;;;;15.23;10.02;;;21.50;99.90;;;;;;5004835;28;20435;-33
2023/09/11 02:31:38;;;;;;;17.35;10.40;;;21.50;99.90;;;;;;5001485;28;20161;-33
2023/09/11 02:34:04;;;;;;;16.23;10.50;;;21.50;99.90;;;;;;5004816;28;20060;-33
2023/09/11 02:36:30;;;;;;;21.08;10.23;;;21.50;99.90;;;;;;5004545;28;20042;-33
2023/09/11 02:38:56;;;;;;;15.52;10.98;;;21.40;99.90;;;;;;5003529;28;20120;-33
2023/09/11 02:41:21;;;;;;;17.63;10.23;;;21.40;99.90;;;;;;5002211;28;20046;-34
2023/09/11 02:43:47;;;;;;;17.92;10.70;;;21.40;99.90;;;;;;5001014;28;20134;-35
2023/09/11 02:46:13;;;;;;;15.82;9.77;;;21.40;99.90;;;;;;5004828;28;20065;-34
2023/09/11 02:48:46;;;;;;;18.45;10.43;;;21.40;99.90;;;;;;5004280;28;20046;-40
2023/09/11 02:51:12;;;;;;;15.40;9.68;;;21.40;99.90;;;;;;5004937;28;20050;-35
2023/09/11 02:53:38;;;;;;;16.05;10.30;;;21.30;99.90;;;;;;5006202;28;20077;-34
2023/09/11 02:56:04;;;;;;;17.02;9.88;;;21.30;99.90;;;;;;5004490;28;20090;-34
2023/09/11 02:58:30;;;;;;;16.33;10.32;;;21.30;99.90;;;;;;5003736;28;20126;-33
2023/09/11 03:01:05;;;;;;;14.85;10.40;;;21.30;99.90;;;;;;5000596;28;20144;-34
2023/09/11 03:03:31;;;;;;;20.05;10.38;;;21.30;99.90;;;;;;4998533;28;20505;-34
2023/09/11 03:05:58;;;;;;;19.38;10.57;;;21.30;99.90;;;;;;5000755;28;20054;-34
2023/09/11 03:08:24;;;;;;;15.57;10.00;;;21.30;99.90;;;;;;5008689;28;20077;-34
2023/09/11 03:10:50;;;;;;;18.17;10.85;;;21.20;99.90;;;;;;5005561;28;20123;-34
2023/09/11 03:13:16;;;;;;;13.88;9.98;;;21.20;99.90;;;;;;5001422;28;20061;-34
2023/09/11 03:15:45;;;;;;;20.38;10.30;;;21.20;99.90;;;;;;5001835;28;20054;-33
2023/09/11 03:18:11;;;;;;;19.10;10.25;;;21.20;99.90;;;;;;5001976;28;20058;-33
2023/09/11 03:20:38;;;;;;;20.92;10.45;;;21.20;99.90;;;;;;5006595;28;20042;-34
2023/09/11 03:23:03;;;;;;;13.60;10.02;;;21.10;99.90;;;;;;5002957;28;20046;-33
2023/09/11 03:25:35;;;;;;;17.98;10.20;;;21.10;99.90;;;;;;5006806;28;20507;-34
2023/09/11 03:28:01;;;;;;;16.77;10.35;;;21.10;99.90;;;;;;4997594;28;20042;-34
2023/09/11 03:30:27;;;;;;;19.23;10.88;;;21.10;99.90;;;;;;5002055;28;20046;-39
2023/09/11 03:32:53;;;;;;;20.08;10.88;;;21.10;99.90;;;;;;5001832;28;20068;-34
2023/09/11 03:35:18;;;;;;;17.75;10.32;;;21.10;99.90;;;;;;5001041;28;20094;-35
2023/09/11 03:37:44;;;;;;;18.58;10.85;;;21.10;99.90;;;;;;5001422;28;20049;-35
2023/09/11 03:40:13;;;;;;;15.73;9.68;;;21.10;99.90;;;;;;5006331;28;20060;-34
2023/09/11 03:42:39;;;;;;;14.43;8.88;;;21.10;99.90;;;;;;5002466;28;20049;-34
2023/09/11 03:45:07;;;;;;;16.40;10.15;;;21.00;99.90;;;;;;5003877;28;20726;-35
2023/09/11 03:47:33;;;;;;;12.73;9.63;;;21.10;99.90;;;;;;5006258;28;20704;-35
2023/09/11 03:49:58;;;;;;;13.32;8.63;;;21.10;99.90;;;;;;5008621;28;20050;-33
2023/09/11 03:52:24;;;;;;;13.13;8.77;;;21.10;99.90;;;;;;4986121;28;20081;-34
2023/09/11 03:54:49;;;;;;;13.43;10.13;;;21.10;99.90;;;;;;5003788;28;20130;-34
2023/09/11 03:57:15;;;;;;;16.98;9.40;;;21.10;99.90;;;;;;5004558;28;20042;-33
2023/09/11 03:59:41;;;;;;;15.35;9.27;;;21.10;99.90;;;;;;5008119;28;20049;-35
2023/09/11 04:02:06;;;;;;;17.15;10.10;;;21.00;99.90;;;;;;5004369;28;20050;-35
2023/09/11 04:04:32;;;;;;;16.17;10.15;;;21.10;99.90;;;;;;5000076;28;20054;-35
2023/09/11 04:06:58;;;;;;;12.07;9.27;;;21.00;99.90;;;;;;5005089;28;20564;-34
2023/09/11 04:09:23;;;;;;;17.50;9.52;;;21.10;99.90;;;;;;5002542;28;20423;-34
2023/09/11 04:11:49;;;;;;;14.05;9.57;;;21.10;99.90;;;;;;5003182;28;20049;-34
2023/09/11 04:14:15;;;;;;;19.52;10.73;;;21.10;99.90;;;;;;5002363;28;20054;-34
2023/09/11 04:16:41;;;;;;;16.27;9.70;;;21.00;99.90;;;;;;4996809;28;20045;-34
2023/09/11 04:19:07;;;;;;;20.98;10.30;;;21.00;99.90;;;;;;4993107;28;20098;-34
2023/09/11 04:21:33;;;;;;;17.33;9.13;;;21.00;99.90;;;;;;5003076;28;20499;-34
2023/09/11 04:23:58;;;;;;;18.55;9.75;;;21.00;99.90;;;;;;5000896;28;20389;-34
2023/09/11 04:26:24;;;;;;;17.15;10.38;;;21.00;99.90;;;;;;5003783;28;20109;-33
2023/09/11 04:28:50;;;;;;;17.02;10.48;;;20.90;99.90;;;;;;5010506;28;20128;-34
2023/09/11 04:31:15;;;;;;;14.27;10.07;;;20.90;99.90;;;;;;5008139;28;20141;-33
2023/09/11 04:33:41;;;;;;;22.80;9.98;;;20.90;99.90;;;;;;5006321;28;20048;-34
2023/09/11 04:36:06;;;;;;;14.43;9.25;;;20.90;99.90;;;;;;5009477;28;20049;-34
2023/09/11 04:38:32;;;;;;;14.80;8.90;;;20.90;99.90;;;;;;5006568;28;20479;-34
2023/09/11 04:40:58;;;;;;;19.70;9.85;;;20.90;99.90;;;;;;5011443;28;20052;-34
2023/09/11 04:43:24;;;;;;;16.35;9.23;;;20.90;99.90;;;;;;5010331;28;20408;-34
2023/09/11 04:45:50;;;;;;;14.73;10.05;;;20.90;99.90;;;;;;5010001;28;20092;-34
2023/09/11 04:48:15;;;;;;;19.70;10.32;;;20.90;99.90;;;;;;5008960;28;20082;-34
2023/09/11 04:50:41;;;;;;;15.70;10.65;;;20.90;99.90;;;;;;5006628;28;20045;-33
2023/09/11 04:53:07;;;;;;;15.35;9.05;;;20.90;99.90;;;;;;5007620;28;20058;-33
2023/09/11 04:55:32;;;;;;;16.10;10.15;;;20.80;99.90;;;;;;5008766;28;20057;-34
2023/09/11 04:57:58;;;;;;;16.33;10.38;;;20.80;99.90;;;;;;5008073;28;20135;-33
2023/09/11 05:00:26;;;;;;;11.90;9.25;;;20.80;99.90;;;;;;5008995;28;20426;-35
2023/09/11 05:02:52;;;;;;;16.13;10.25;;;20.80;99.90;;;;;;4990648;28;20514;-34
2023/09/11 05:05:18;;;;;;;18.80;10.45;;;20.80;99.90;;;;;;4988938;28;20061;-35
2023/09/11 05:07:43;;;;;;;16.05;10.95;;;20.70;99.90;;;;;;5011646;28;20141;-35
2023/09/11 05:10:09;;;;;;;15.38;9.40;;;20.70;99.90;;;;;;5003854;28;20574;-34
2023/09/11 05:12:35;;;;;;;14.13;10.00;;;20.70;99.90;;;;;;5007031;28;20050;-35
2023/09/11 05:15:01;;;;;;;18.23;10.05;;;20.80;99.90;;;;;;5006728;28;20487;-35
2023/09/11 05:17:27;;;;;;;15.43;9.63;;;20.80;99.90;;;;;;5003087;28;20675;-34
2023/09/11 05:19:53;;;;;;;17.52;10.15;;;20.80;99.90;;;;;;5009099;28;20073;-34
2023/09/11 05:22:19;;;;;;;13.73;9.50;;;20.80;99.90;;;;;;5007727;28;20484;-34
2023/09/11 05:24:44;;;;;;;13.27;9.15;;;20.80;99.90;;;;;;5009283;28;20154;-34
2023/09/11 05:27:10;;;;;;;13.63;9.20;;;20.80;99.90;;;;;;5008119;28;20132;-34
2023/09/11 05:29:36;;;;;;;13.20;9.68;;;20.80;99.90;;;;;;5007088;28;20061;-34
2023/09/11 05:32:02;;;;;;;15.38;8.80;;;20.90;99.90;;;;;;5004995;28;20108;-34
2023/09/11 05:34:28;;;;;;;14.95;9.98;;;20.90;99.90;;;;;;5004194;28;20056;-34
2023/09/11 05:36:54;;;;;;;20.30;10.02;;;20.90;99.90;;;;;;5008111;28;20420;-34
2023/09/11 05:39:20;;;;;;;16.65;11.52;;;20.90;99.90;;;;;;5001363;28;20046;-35
2023/09/11 05:41:45;;;;;;;16.10;10.23;;;20.90;99.90;;;;;;5002256;28;20133;-33
2023/09/11 05:44:11;;;;;;;19.15;11.30;;;20.90;99.90;;;;;;5004261;28;20068;-34
2023/09/11 05:46:37;;;;;;;18.33;11.25;;;20.90;99.90;;;;;;5005862;28;20049;-34
2023/09/11 05:49:03;;;;;;;22.95;11.82;;;20.90;99.90;;;;;;5003861;28;20050;-34
2023/09/11 05:51:28;;;;;;;23.27;12.02;;;20.90;99.90;;;;;;4997560;28;20050;-34
2023/09/11 05:53:54;;;;;;;14.20;10.45;;;21.00;99.90;;;;;;5003151;28;20045;-35
2023/09/11 05:56:20;;;;;;;18.13;10.80;;;21.00;99.90;;;;;;4985627;28;20041;-34
2023/09/11 05:58:46;;;;;;;19.25;10.68;;;21.00;99.90;;;;;;5000925;28;20096;-33
2023/09/11 06:01:13;;;;;;;14.63;10.82;;;21.10;99.90;;;;;;4997667;28;20152;-33
2023/09/11 06:03:39;;;;;;;19.23;10.88;;;21.10;99.90;;;;;;5001265;28;20065;-34
2023/09/11 06:06:05;;;;;;;17.80;11.20;;;21.10;99.90;;;;;;4982024;28;20058;-34
2023/09/11 06:08:32;;;;;;;15.30;10.32;;;21.20;99.90;;;;;;5000989;28;20053;-34
2023/09/11 06:10:59;;;;;;;16.88;10.80;;;21.20;99.90;;;;;;5001224;28;20050;-35
2023/09/11 06:13:26;;;;;;;14.05;10.02;;;21.30;99.90;;;;;;4997410;28;20046;-35
2023/09/11 06:15:52;;;;;;;16.30;10.68;;;21.40;99.90;;;;;;5004444;28;20037;-35
2023/09/11 06:18:17;;;;;;;18.85;12.00;;;21.40;99.90;;;;;;4983014;28;20064;-34
2023/09/11 06:20:43;;;;;;;23.40;10.70;;;21.50;99.90;;;;;;4989517;28;20408;-34
2023/09/11 06:23:10;;;;;;;19.23;10.73;;;21.50;99.90;;;;;;5001751;28;20062;-34
2023/09/11 06:25:36;;;;;;;16.35;10.23;;;21.60;99.90;;;;;;4984990;28;20601;-34
2023/09/11 06:28:03;;;;;;;20.80;11.57;;;21.70;99.90;;;;;;5006644;28;20060;-35
2023/09/11 06:30:31;;;;;;;16.58;11.48;;;21.70;99.90;;;;;;5003444;28;20499;-36
2023/09/11 06:32:57;;;;;;;19.23;12.18;;;21.80;99.90;;;;;;4987918;28;20483;-34
2023/09/11 06:35:22;;;;;;;17.08;11.95;;;21.80;99.90;;;;;;4986895;28;20056;-33
2023/09/11 06:37:48;;;;;;;17.73;12.50;;;21.80;99.90;;;;;;5005877;28;20136;-34
2023/09/11 06:40:15;;;;;;;16.88;10.82;;;21.90;99.90;;;;;;5007745;28;20220;-34
2023/09/11 06:42:41;;;;;;;16.33;12.55;;;21.90;99.90;;;;;;5007365;28;20203;-35
2023/09/11 06:45:07;;;;;;;15.95;10.93;;;22.00;99.90;;;;;;5003098;28;20053;-34
2023/09/11 06:47:33;;;;;;;16.23;11.60;;;22.00;99.90;;;;;;5001940;28;20447;-35
2023/09/11 06:49:59;;;;;;;17.23;12.50;;;22.10;99.90;;;;;;4985684;28;20042;-34
2023/09/11 06:52:25;;;;;;;15.88;11.32;;;22.10;99.90;;;;;;5003520;28;20045;-33
2023/09/11 06:54:51;;;;;;;18.55;11.77;;;22.10;99.90;;;;;;4989557;28;20107;-33
2023/09/11 06:57:16;;;;;;;18.33;11.88;;;22.10;99.90;;;;;;5004915;28;20140;-34
2023/09/11 06:59:42;;;;;;;23.02;12.32;;;22.20;99.90;;;;;;5003118;28;20390;-32
2023/09/11 07:02:08;;;;;;;18.50;11.48;;;22.20;99.90;;;;;;5004615;28;20054;-33
2023/09/11 07:04:34;;;;;;;17.25;11.48;;;22.20;99.90;;;;;;5005547;28;20468;-33
2023/09/11 07:07:00;;;;;;;18.63;12.07;;;22.30;99.90;;;;;;5006482;28;20049;-34
2023/09/11 07:09:25;;;;;;;15.13;10.65;;;22.30;99.90;;;;;;5006465;28;20050;-33
2023/09/11 07:11:52;;;;;;;14.73;11.05;;;22.40;99.90;;;;;;5005559;28;20046;-33
2023/09/11 07:14:22;;;;;;;13.35;11.25;;;22.40;99.90;;;;;;5007511;28;20053;-33
2023/09/11 07:16:48;;;;;;;18.00;10.80;;;22.40;99.90;;;;;;5006671;28;20041;-34
2023/09/11 07:19:14;;;;;;;15.65;11.25;;;22.50;99.90;;;;;;5006560;28;20546;-35
2023/09/11 07:21:41;;;;;;;16.02;11.45;;;22.60;99.90;;;;;;5009147;28;20049;-34
2023/09/11 07:24:07;;;;;;;14.85;9.57;;;22.60;99.90;;;;;;5006394;28;20393;-34
2023/09/11 07:26:33;;;;;;;17.40;10.70;;;22.70;99.90;;;;;;5006470;28;20049;-34
2023/09/11 07:29:02;;;;;;;15.82;11.70;;;22.70;99.90;;;;;;5004859;28;20041;-34
2023/09/11 07:31:28;;;;;;;16.13;11.38;;;22.80;99.90;;;;;;4983424;28;20041;-34
2023/09/11 07:33:54;;;;;;;20.38;11.85;;;22.80;99.90;;;;;;5002189;28;20077;-34
2023/09/11 07:36:21;;;;;;;12.10;10.25;;;22.80;99.90;;;;;;5000496;28;20085;-34
2023/09/11 07:38:46;;;;;;;16.60;11.25;;;22.90;99.90;;;;;;5004064;28;20133;-34
2023/09/11 07:41:14;;;;;;;16.15;12.55;;;23.00;99.90;;;;;;5004724;28;20137;-34
2023/09/11 07:43:40;;;;;;;17.85;12.18;;;23.00;99.90;;;;;;5000247;28;20045;-34
2023/09/11 07:46:06;;;;;;;18.15;12.35;;;23.00;99.90;;;;;;5005506;28;20529;-33
2023/09/11 07:48:31;;;;;;;18.30;12.18;;;23.00;99.90;;;;;;5004352;28;20073;-34
2023/09/11 07:50:57;;;;;;;16.88;12.60;;;23.00;99.90;;;;;;5005621;28;20060;-34
2023/09/11 07:53:23;;;;;;;20.33;13.05;;;23.00;99.90;;;;;;5003897;28;20445;-34
2023/09/11 07:55:49;;;;;;;19.77;12.80;;;23.10;99.90;;;;;;4997402;28;20058;-34
2023/09/11 07:58:18;;;;;;;17.85;12.40;;;23.10;99.90;;;;;;5005910;28;20045;-33
2023/09/11 08:00:43;;;;;;;15.00;13.00;;;23.20;99.90;;;;;;4999829;28;20053;-33
2023/09/11 08:03:09;;;;;;;18.08;13.13;;;23.20;99.90;;;;;;5001209;28;20042;-34
2023/09/11 08:05:35;;;;;;;18.85;13.00;;;23.30;99.90;;;;;;5001982;28;20069;-34
2023/09/11 08:08:02;;;;;;;15.18;11.70;;;23.40;99.90;;;;;;5001059;28;20495;-34
2023/09/11 08:10:28;;;;;;;16.67;11.45;;;23.40;99.90;;;;;;5002649;28;20518;-34
2023/09/11 08:12:54;;;;;;;15.02;11.60;;;23.50;99.90;;;;;;4999907;28;20108;-34
2023/09/11 08:15:20;;;;;;;15.25;12.13;;;23.60;99.90;;;;;;5007061;28;20050;-34
2023/09/11 08:17:46;;;;;;;18.98;12.38;;;23.60;99.90;;;;;;5003977;28;20064;-34
2023/09/11 08:20:12;;;;;;;17.08;10.45;;;23.70;99.90;;;;;;5002693;28;20042;-35
2023/09/11 08:22:39;;;;;;;16.70;11.48;;;23.80;99.90;;;;;;5003150;28;20060;-38
2023/09/11 08:25:05;;;;;;;15.55;11.43;;;23.80;99.90;;;;;;5005338;28;20132;-34
2023/09/11 08:27:31;;;;;;;16.65;11.52;;;24.00;99.90;;;;;;5007168;28;20058;-34
2023/09/11 08:29:57;;;;;;;13.30;9.65;;;24.10;99.90;;;;;;5002981;28;20049;-34
2023/09/11 08:32:23;;;;;;;15.73;9.25;;;24.30;99.90;;;;;;5003282;28;20050;-34
2023/09/11 08:34:49;;;;;;;13.43;9.52;;;24.30;99.90;;;;;;5006757;28;20370;-34
2023/09/11 08:37:15;;;;;;;11.23;8.90;;;24.40;99.90;;;;;;5003802;28;20037;-34
2023/09/11 08:39:40;;;;;;;11.75;9.07;;;24.50;99.90;;;;;;4997814;28;20042;-34
2023/09/11 08:42:08;;;;;;;14.65;8.70;;;24.60;99.90;;;;;;5003505;28;20045;-34
2023/09/11 08:44:34;;;;;;;10.95;7.88;;;24.60;99.90;;;;;;4982350;28;20054;-34
2023/09/11 08:47:03;;;;;;;14.40;8.57;;;24.70;99.90;;;;;;5004436;28;20056;-35
2023/09/11 08:49:42;;;;;;;12.65;8.32;;;24.80;99.90;;;;;;5003175;28;20034;-35
2023/09/11 08:52:13;;;;;;;11.82;7.55;;;24.90;99.90;;;;;;5003335;28;20590;-32
2023/09/11 08:54:42;;;;;;;14.53;8.37;;;25.00;99.90;;;;;;5000487;28;20052;-32
2023/09/11 08:57:11;;;;;;;10.20;7.82;;;25.10;99.90;;;;;;5001415;28;20450;-32
2023/09/11 08:59:40;;;;;;;14.52;8.63;;;25.30;99.90;;;;;;5004467;28;20057;-33
2023/09/11 09:02:07;;;;;;;11.75;8.15;;;25.30;99.90;;;;;;5003776;28;20571;-33
2023/09/11 09:04:34;;;;;;;14.27;7.97;;;25.40;99.90;;;;;;5004969;28;20377;-34
2023/09/11 09:07:01;;;;;;;11.68;8.50;;;25.50;99.90;;;;;;4999287;28;20054;-33
2023/09/11 09:09:27;;;;;;;16.67;8.55;;;25.60;99.90;;;;;;5004867;28;20051;-34
2023/09/11 09:11:53;;;;;;;12.43;7.15;;;25.60;99.90;;;;;;4984119;28;20137;-34
2023/09/11 09:14:19;;;;;;;13.20;8.40;;;25.60;99.90;;;;;;5004493;28;20050;-34
2023/09/11 09:16:45;;;;;;;21.65;9.73;;;25.60;99.90;;;;;;5008855;28;20050;-34
2023/09/11 09:19:11;;;;;;;14.10;8.85;;;25.60;99.90;;;;;;5006855;28;20053;-34
2023/09/11 09:22:04;;;;;;;11.35;8.32;;;25.70;99.90;;;;;;5008678;28;20121;-34
2023/09/11 09:24:30;;;;;;;14.63;8.95;;;25.80;99.90;;;;;;5004191;28;20073;-34
2023/09/11 09:26:58;;;;;;;15.32;8.82;;;25.80;99.90;;;;;;5002821;28;20056;-34
2023/09/11 09:29:24;;;;;;;11.55;8.38;;;25.90;99.90;;;;;;5007005;28;20530;-34
2023/09/11 09:31:50;;;;;;;14.13;8.70;;;25.90;99.90;;;;;;5003769;28;20551;-34
2023/09/11 09:34:16;;;;;;;13.30;8.55;;;26.00;99.90;;;;;;5005541;28;20049;-34
2023/09/11 09:36:50;;;;;;;14.50;8.98;;;26.00;99.90;;;;;;5004429;28;20538;-34
2023/09/11 09:39:16;;;;;;;16.15;8.95;;;26.10;99.90;;;;;;5004346;28;20384;-34
2023/09/11 09:41:53;;;;;;;16.83;9.65;;;26.20;99.90;;;;;;5001952;28;20061;-34
2023/09/11 09:44:36;;;;;;;14.02;9.02;;;26.20;99.90;;;;;;5002829;28;20054;-34
2023/09/11 09:47:09;;;;;;;14.00;9.40;;;26.20;99.90;;;;;;5002373;28;20054;-34
2023/09/11 09:49:46;;;;;;;15.00;9.00;;;26.30;99.90;;;;;;5004880;28;20396;-34
2023/09/11 09:52:13;;;;;;;14.60;9.85;;;26.30;99.90;;;;;;5004480;28;20069;-34
2023/09/11 09:54:47;;;;;;;11.80;9.02;;;26.30;99.90;;;;;;5007063;28;20487;-34
2023/09/11 09:57:14;;;;;;;12.23;9.48;;;26.30;99.90;;;;;;5005006;28;20522;-34
2023/09/11 09:59:41;;;;;;;16.15;10.35;;;26.30;99.90;;;;;;5004136;28;20085;-34
2023/09/11 10:02:11;;;;;;;16.20;10.05;;;26.30;99.90;;;;;;5007106;28;20057;-34
2023/09/11 10:04:37;;;;;;;13.82;9.68;;;26.30;99.90;;;;;;5006173;28;20053;-34
2023/09/11 10:07:03;;;;;;;15.60;9.50;;;26.30;99.90;;;;;;5005072;28;20141;-34
2023/09/11 10:09:28;;;;;;;12.88;10.65;;;26.30;99.90;;;;;;5005745;28;20124;-34
2023/09/11 10:11:54;;;;;;;17.38;10.88;;;26.30;99.90;;;;;;5006226;28;20415;-34
2023/09/11 10:14:21;;;;;;;15.13;9.85;;;26.20;99.90;;;;;;5003841;28;20049;-34
2023/09/11 10:16:46;;;;;;;16.90;10.52;;;26.30;99.90;;;;;;5004906;28;20060;-34
2023/09/11 10:19:13;;;;;;;15.45;10.30;;;26.30;99.90;;;;;;5009102;28;20133;-34
2023/09/11 10:21:39;;;;;;;18.75;10.32;;;26.40;99.90;;;;;;5006025;28;20069;-34
2023/09/11 10:24:05;;;;;;;15.05;10.18;;;26.40;99.90;;;;;;5002760;28;20046;-34
2023/09/11 10:26:42;;;;;;;16.77;10.27;;;26.50;99.90;;;;;;5005293;28;20058;-34
2023/09/11 10:29:11;;;;;;;15.18;10.23;;;26.50;99.90;;;;;;5006725;28;20096;-34
2023/09/11 10:31:56;;;;;;;14.50;11.02;;;26.60;99.90;;;;;;5001489;28;20742;-34
2023/09/11 10:34:23;;;;;;;14.57;9.73;;;26.70;99.90;;;;;;5006854;28;20049;-34
2023/09/11 10:36:56;;;;;;;11.65;9.57;;;26.80;99.90;;;;;;5006620;28;20058;-33
2023/09/11 10:39:22;;;;;;;12.68;8.82;;;26.90;99.90;;;;;;5003987;28;20045;-33
2023/09/11 10:41:48;;;;;;;14.68;9.57;;;27.00;99.90;;;;;;5004951;28;20068;-33
2023/09/11 10:44:15;;;;;;;12.07;8.65;;;27.00;99.90;;;;;;5003973;28;20424;-33
2023/09/11 10:46:48;;;;;;;13.77;9.23;;;27.10;99.90;;;;;;5005713;28;20053;-33
2023/09/11 10:49:19;;;;;;;19.05;9.00;;;27.10;99.90;;;;;;5002235;28;20049;-32
2023/09/11 10:51:47;;;;;;;12.97;7.87;;;27.20;99.90;;;;;;5002962;28;20073;-33
2023/09/11 10:54:15;;;;;;;10.05;7.40;;;27.30;99.90;;;;;;5004174;28;20672;-33
2023/09/11 10:56:42;;;;;;;13.43;8.32;;;27.40;99.90;;;;;;5004744;28;20042;-33
2023/09/11 10:59:08;;;;;;;11.90;7.35;;;27.40;99.90;;;;;;5007564;28;20046;-33
2023/09/11 11:01:35;;;;;;;15.98;6.88;;;27.60;99.90;;;;;;4987795;28;20048;-33
2023/09/11 11:04:04;;;;;;;9.88;7.15;;;27.70;99.90;;;;;;5002656;28;20111;-33
2023/09/11 11:06:31;;;;;;;13.55;7.63;;;27.70;99.90;;;;;;5003841;28;20049;-33
2023/09/11 11:08:57;;;;;;;10.07;6.57;;;27.70;99.90;;;;;;4988674;28;20095;-33
2023/09/11 11:11:30;;;;;;;11.88;7.20;;;27.70;99.90;;;;;;5004878;28;20049;-33
2023/09/11 11:14:18;;;;;;;8.70;5.55;;;27.70;99.90;;;;;;5003526;28;20053;-34
2023/09/11 11:16:59;;;;;;;10.48;7.35;;;27.80;99.90;;;;;;5004944;28;20144;-34
2023/09/11 11:19:34;;;;;;;9.97;7.60;;;27.80;99.90;;;;;;5002150;28;20164;-34
2023/09/11 11:22:01;;;;;;;11.73;6.30;;;27.80;99.90;;;;;;5004961;28;20108;-34
2023/09/11 11:24:31;;;;;;;9.57;7.13;;;27.80;99.90;;;;;;5006093;28;20050;-34
2023/09/11 11:26:57;;;;;;;11.50;7.18;;;27.90;99.90;;;;;;5007383;28;20096;-33
2023/09/11 11:29:24;;;;;;;11.65;7.55;;;28.00;99.90;;;;;;5006976;28;20057;-33
2023/09/11 11:31:55;;;;;;;10.73;6.22;;;28.00;99.90;;;;;;5006065;28;20046;-33
2023/09/11 11:34:31;;;;;;;8.90;6.15;;;28.00;99.90;;;;;;5005928;28;20037;-34
2023/09/11 11:37:03;;;;;;;8.32;6.10;;;28.10;99.90;;;;;;5001669;28;20046;-33
2023/09/11 11:39:29;;;;;;;9.30;5.03;;;28.00;99.90;;;;;;5001375;28;20128;-33
2023/09/11 11:41:56;;;;;;;8.35;5.32;;;28.00;99.90;;;;;;5003283;28;20539;-34
2023/09/11 11:44:24;;;;;;;7.53;5.60;;;28.10;99.90;;;;;;5004897;28;20072;-34
2023/09/11 11:46:51;;;;;;;8.60;5.50;;;28.20;99.90;;;;;;5003050;28;20041;-34
2023/09/11 11:49:19;;;;;;;6.78;4.35;;;28.10;99.90;;;;;;5005152;28;20100;-33
2023/09/11 11:51:45;;;;;;;7.28;3.08;;;28.20;99.90;;;;;;4986497;28;20054;-34
2023/09/11 11:54:25;;;;;;;5.10;2.90;;;28.20;99.90;;;;;;5001748;28;20042;-33
2023/09/11 11:56:58;;;;;;;5.47;2.40;;;28.20;99.90;;;;;;5004254;28;20060;-34
2023/09/11 11:59:34;;;;;;;4.28;2.25;;;28.10;99.90;;;;;;5004262;28;20089;-34
2023/09/11 12:02:00;;;;;;;5.50;2.67;;;28.10;99.90;;;;;;5003091;28;20057;-33
2023/09/11 12:04:26;;;;;;;4.30;2.22;;;28.20;99.90;;;;;;5000941;28;20054;-34
2023/09/11 12:06:53;;;;;;;5.05;2.17;;;28.20;99.90;;;;;;5000206;28;20684;-34
2023/09/11 12:09:20;;;;;;;9.23;2.65;;;28.30;99.90;;;;;;5005652;28;20053;-34
2023/09/11 12:11:46;;;;;;;3.83;2.22;;;28.30;99.90;;;;;;5001224;28;20132;-34
2023/09/11 12:14:16;;;;;;;5.85;2.08;;;28.50;99.90;;;;;;5003777;28;20497;-34
2023/09/11 12:16:41;;;;;;;5.78;2.80;;;28.60;99.90;;;;;;5007557;28;20050;-33
2023/09/11 12:19:07;;;;;;;6.22;3.08;;;28.70;99.90;;;;;;5002306;28;20052;-33
2023/09/11 12:21:33;;;;;;;6.53;2.85;;;28.70;99.90;;;;;;5003272;28;20058;-33
2023/09/11 12:24:00;;;;;;;5.93;3.13;;;28.80;99.90;;;;;;5004404;28;20133;-33
2023/09/11 12:26:27;;;;;;;5.60;3.10;;;28.80;99.90;;;;;;5002747;28;20046;-33
2023/09/11 12:28:55;;;;;;;5.63;3.38;;;29.00;99.90;;;;;;5002013;28;20072;-33
2023/09/11 12:31:21;;;;;;;5.05;2.78;;;29.10;99.90;;;;;;5002893;28;20054;-34
2023/09/11 12:33:56;;;;;;;9.57;2.88;;;29.10;99.90;;;;;;5001466;28;20558;-33